Time;durP1;ratioP1;P1;durP2;ratioP2;P2;SDS_P1;SDS_P2;PMS_P1;PMS_P2;Temp;Humidity;BMP_temperature;BMP_pressure;BME280_temperature;BME280_humidity;BME280_pressure;Samples;Min_cycle;Max_cycle;Signal;HPM_P1;HPM_P2
2023/12/17 00:00:54;;;;;;;0.00;0.00;;;;;;;9.47;100.00;102488.13;4876349;29;20041;-80
2023/12/17 00:03:22;;;;;;;0.00;0.00;;;;;;;9.48;100.00;102490.66;4874803;29;20088;-77
2023/12/17 00:05:48;;;;;;;0.00;0.00;;;;;;;9.65;100.00;102521.16;4884402;29;20036;-82
2023/12/17 00:08:14;;;;;;;0.00;0.00;;;;;;;9.49;100.00;102494.22;4877331;29;20024;-82
2023/12/17 00:10:42;;;;;;;0.00;0.00;;;;;;;9.60;100.00;102499.91;4872869;29;20037;-81
2023/12/17 00:13:10;;;;;;;0.00;0.00;;;;;;;9.39;100.00;102464.63;4871108;29;20057;-80
2023/12/17 00:15:37;;;;;;;0.00;0.00;;;;;;;9.43;100.00;102476.78;4861422;29;20404;-80
2023/12/17 00:18:03;;;;;;;0.00;0.00;;;;;;;9.52;100.00;102485.59;4860059;29;20441;-80
2023/12/17 00:20:29;;;;;;;0.00;0.00;;;;;;;9.59;100.00;102506.44;4878590;29;20032;-81
2023/12/17 00:22:55;;;;;;;0.00;0.00;;;;;;;9.59;100.00;102509.16;4875435;29;20033;-83
2023/12/17 00:25:20;;;;;;;0.00;0.00;;;;;;;9.60;100.00;102529.94;4878945;29;20134;-80
2023/12/17 00:27:46;;;;;;;0.00;0.00;;;;;;;9.50;100.00;102499.47;4862869;29;20041;-80
2023/12/17 00:30:12;;;;;;;0.00;0.00;;;;;;;9.47;100.00;102491.69;4880064;29;20036;-80
2023/12/17 00:32:37;;;;;;;0.00;0.00;;;;;;;9.49;100.00;102497.81;4857127;29;20048;-81
2023/12/17 00:35:03;;;;;;;0.00;0.00;;;;;;;9.54;100.00;102500.75;4868837;29;20020;-83
2023/12/17 00:37:28;;;;;;;0.00;0.00;;;;;;;9.40;100.00;102477.19;4869819;29;20037;-82
2023/12/17 00:39:56;;;;;;;0.00;0.00;;;;;;;9.44;100.00;102473.00;4863449;29;20068;-79
2023/12/17 00:42:22;;;;;;;0.00;0.00;;;;;;;9.23;100.00;102436.66;4876877;29;20032;-78
2023/12/17 00:44:47;;;;;;;0.00;0.00;;;;;;;9.29;100.00;102437.72;4857950;29;20043;-81
2023/12/17 00:47:13;;;;;;;0.00;0.00;;;;;;;9.32;100.00;102463.75;4858072;29;20037;-79
2023/12/17 00:49:49;;;;;;;0.00;0.00;;;;;;;9.30;100.00;102446.72;4876822;29;20069;-80
2023/12/17 00:52:14;;;;;;;0.03;0.03;;;;;;;9.23;100.00;102433.91;4866370;29;20029;-78
2023/12/17 00:55:00;;;;;;;0.10;0.10;;;;;;;9.22;100.00;102432.22;4879797;29;20051;-82
2023/12/17 00:57:34;;;;;;;0.00;0.00;;;;;;;9.43;100.00;102454.94;4868637;29;20041;-83
2023/12/17 01:00:00;;;;;;;0.05;0.05;;;;;;;9.31;100.00;102432.03;4895008;29;20035;-81
2023/12/17 01:02:25;;;;;;;0.00;0.00;;;;;;;9.34;100.00;102428.88;4867338;29;20033;-80
2023/12/17 01:04:53;;;;;;;0.00;0.00;;;;;;;9.35;100.00;102430.56;4867477;29;20040;-83
2023/12/17 01:07:19;;;;;;;0.00;0.00;;;;;;;9.45;100.00;102441.94;4867667;29;20043;-79
2023/12/17 01:09:49;;;;;;;0.00;0.00;;;;;;;9.23;100.00;102395.69;4882786;29;20037;-79
2023/12/17 01:12:35;;;;;;;0.00;0.00;;;;;;;9.28;100.00;102405.16;4864883;29;20025;-79
2023/12/17 01:15:06;;;;;;;0.00;0.00;;;;;;;9.47;100.00;102447.19;4876847;29;20036;-77
2023/12/17 01:17:31;;;;;;;0.00;0.00;;;;;;;9.33;100.00;102419.00;4870934;29;20660;-78
2023/12/17 01:19:56;;;;;;;0.00;0.00;;;;;;;9.43;100.00;102431.22;4876924;29;20115;-78
2023/12/17 01:22:22;;;;;;;0.00;0.00;;;;;;;9.45;100.00;102431.00;4871019;29;20036;-77
2023/12/17 01:24:59;;;;;;;;;;;;;;;;;;;;;
2023/12/17 01:27:25;;;;;;;0.00;0.00;;;;;;;9.30;100.00;102416.69;4864174;29;20028;-77
2023/12/17 01:29:50;;;;;;;0.00;0.00;;;;;;;9.44;100.00;102432.03;4847463;29;20037;-77
2023/12/17 01:32:15;;;;;;;0.00;0.00;;;;;;;9.41;100.00;102424.28;4855713;29;20039;-78
2023/12/17 01:34:41;;;;;;;0.00;0.00;;;;;;;9.36;100.00;102415.84;4856804;29;20047;-77
2023/12/17 01:37:07;;;;;;;0.00;0.00;;;;;;;9.39;100.00;102419.03;4879127;29;20028;-78
2023/12/17 01:39:32;;;;;;;0.00;0.00;;;;;;;9.41;100.00;102424.28;4861567;29;20032;-78
2023/12/17 01:41:58;;;;;;;0.00;0.00;;;;;;;9.44;100.00;102429.31;4862197;29;20498;-78
2023/12/17 01:44:23;;;;;;;0.00;0.00;;;;;;;9.42;100.00;102418.59;4865461;29;20036;-83
2023/12/17 01:46:49;;;;;;;0.00;0.00;;;;;;;9.38;100.00;102416.50;4886535;29;20048;-82
2023/12/17 01:49:14;;;;;;;0.00;0.00;;;;;;;9.44;100.00;102423.84;4868665;29;20029;-79
2023/12/17 01:51:41;;;;;;;0.00;0.00;;;;;;;9.37;100.00;102410.19;4894190;29;20041;-78
2023/12/17 01:54:07;;;;;;;0.00;0.00;;;;;;;9.35;100.00;102406.00;4875912;29;20053;-79
2023/12/17 01:56:33;;;;;;;0.00;0.00;;;;;;;9.34;100.00;102405.13;4859058;29;20049;-79
2023/12/17 01:59:07;;;;;;;0.00;0.00;;;;;;;9.30;100.00;102400.31;4875949;29;20029;-81
2023/12/17 02:01:35;;;;;;;0.00;0.00;;;;;;;9.30;100.00;102390.25;4883401;29;20033;-79
2023/12/17 02:04:01;;;;;;;0.00;0.00;;;;;;;9.41;100.00;102402.44;4868263;29;20101;-80
2023/12/17 02:06:26;;;;;;;0.00;0.00;;;;;;;9.42;100.00;102404.13;4870044;29;20740;-80
2023/12/17 02:08:52;;;;;;;0.00;0.00;;;;;;;9.44;100.00;102415.66;4856258;29;20500;-80
2023/12/17 02:11:17;;;;;;;0.00;0.00;;;;;;;9.36;100.00;102400.31;4868060;29;20089;-80
2023/12/17 02:13:45;;;;;;;0.00;0.00;;;;;;;9.32;100.00;102387.31;4883718;29;20169;-79
2023/12/17 02:16:24;;;;;;;0.00;0.00;;;;;;;9.29;100.00;102382.25;4875405;29;20124;-80
2023/12/17 02:18:51;;;;;;;0.00;0.00;;;;;;;9.33;100.00;102394.44;4874090;29;20145;-79
2023/12/17 02:21:22;;;;;;;0.00;0.00;;;;;;;9.25;100.00;102382.66;4853471;29;20032;-81
2023/12/17 02:23:48;;;;;;;0.00;0.00;;;;;;;9.32;100.00;102390.03;4876633;29;20046;-80
2023/12/17 02:26:13;;;;;;;0.00;0.00;;;;;;;9.19;100.00;102380.78;4860897;29;20031;-79
2023/12/17 02:28:38;;;;;;;0.00;0.00;;;;;;;9.34;100.00;102401.59;4897586;29;20681;-78
2023/12/17 02:31:04;;;;;;;0.00;0.00;;;;;;;9.29;100.00;102398.63;4884830;29;20032;-80
2023/12/17 02:33:29;;;;;;;0.00;0.00;;;;;;;9.34;100.00;102407.88;4873863;29;20040;-78
2023/12/17 02:35:55;;;;;;;0.00;0.00;;;;;;;9.30;100.00;102403.03;4872721;29;20388;-78
2023/12/17 02:38:20;;;;;;;0.00;0.00;;;;;;;9.28;100.00;102397.78;4858687;29;20045;-79
2023/12/17 02:40:46;;;;;;;0.00;0.00;;;;;;;9.28;100.00;102400.53;4872432;29;20442;-79
2023/12/17 02:43:11;;;;;;;0.00;0.00;;;;;;;9.31;100.00;102396.53;4844010;29;21701;-79
2023/12/17 02:45:37;;;;;;;0.00;0.00;;;;;;;9.23;100.00;102392.97;4856717;29;20033;-78
2023/12/17 02:48:02;;;;;;;0.00;0.00;;;;;;;9.25;100.00;102399.03;4850427;29;20033;-79
2023/12/17 02:50:28;;;;;;;0.00;0.00;;;;;;;9.16;100.00;102374.91;4872028;29;20113;-81
2023/12/17 02:52:54;;;;;;;0.00;0.00;;;;;;;9.10;100.00;102362.94;4868200;29;20499;-82
2023/12/17 02:55:22;;;;;;;0.00;0.00;;;;;;;8.96;100.00;102339.41;4870322;29;20037;-82
2023/12/17 02:57:47;;;;;;;0.00;0.00;;;;;;;9.23;100.00;102384.78;4876429;29;20085;-82
2023/12/17 03:00:24;;;;;;;0.00;0.00;;;;;;;9.07;100.00;102356.00;4871339;29;20069;-80
2023/12/17 03:03:01;;;;;;;0.00;0.00;;;;;;;8.97;100.00;102341.09;4876503;29;20112;-81
2023/12/17 03:05:26;;;;;;;0.05;0.05;;;;;;;9.04;100.00;102341.94;4861871;29;20120;-79
2023/12/17 03:07:51;;;;;;;0.00;0.00;;;;;;;9.18;100.00;102365.44;4878635;29;20512;-79
2023/12/17 03:10:17;;;;;;;0.00;0.00;;;;;;;8.91;100.00;102321.75;4864421;29;20044;-82
2023/12/17 03:12:43;;;;;;;0.00;0.00;;;;;;;9.05;100.00;102343.59;4892140;29;20074;-76
2023/12/17 03:15:19;;;;;;;;;;;;;;;;;;;;;
2023/12/17 03:17:59;;;;;;;;;;;;;;;;;;;;;
2023/12/17 03:20:26;;;;;;;0.00;0.00;;;;;;;9.19;100.00;102345.28;4877287;29;20029;-78
2023/12/17 03:22:51;;;;;;;0.00;0.00;;;;;;;9.21;100.00;102354.13;4844627;29;20109;-77
2023/12/17 03:25:17;;;;;;;0.00;0.00;;;;;;;9.24;100.00;102356.44;4860170;29;20043;-77
2023/12/17 03:27:42;;;;;;;0.00;0.00;;;;;;;9.22;100.00;102355.78;4852991;29;20060;-77
2023/12/17 03:30:08;;;;;;;0.00;0.00;;;;;;;9.10;100.00;102330.19;4859408;29;20503;-78
2023/12/17 03:32:34;;;;;;;0.00;0.00;;;;;;;9.20;100.00;102352.44;4862228;29;20033;-80
2023/12/17 03:34:59;;;;;;;0.00;0.00;;;;;;;9.10;100.00;102338.38;4856558;29;20036;-78
2023/12/17 03:37:24;;;;;;;0.00;0.00;;;;;;;9.06;100.00;102331.66;4863902;29;20041;-79
2023/12/17 03:39:52;;;;;;;0.00;0.00;;;;;;;9.16;100.00;102336.69;4885822;29;20029;-78
2023/12/17 03:42:18;;;;;;;0.00;0.00;;;;;;;9.13;100.00;102323.47;4855940;29;20159;-79
2023/12/17 03:44:44;;;;;;;0.00;0.00;;;;;;;9.13;100.00;102327.03;4857876;29;20038;-79
2023/12/17 03:47:10;;;;;;;0.00;0.00;;;;;;;9.18;100.00;102338.13;4849532;29;20482;-78
2023/12/17 03:49:36;;;;;;;0.00;0.00;;;;;;;9.06;100.00;102307.09;4870856;29;20032;-77
2023/12/17 03:52:06;;;;;;;0.00;0.00;;;;;;;9.09;100.00;102317.56;4854130;29;20041;-78
2023/12/17 03:54:31;;;;;;;0.00;0.00;;;;;;;9.06;100.00;102323.47;4865825;29;20029;-80
2023/12/17 03:56:59;;;;;;;0.00;0.00;;;;;;;9.12;100.00;102333.53;4862343;29;20068;-79
2023/12/17 03:59:25;;;;;;;0.00;0.00;;;;;;;9.12;100.00;102335.44;4869128;29;20556;-81
2023/12/17 04:01:50;;;;;;;0.00;0.00;;;;;;;9.11;100.00;102331.84;4878674;29;20135;-78
2023/12/17 04:04:16;;;;;;;0.00;0.00;;;;;;;9.10;100.00;102330.19;4873779;29;20036;-77
2023/12/17 04:06:46;;;;;;;0.00;0.00;;;;;;;9.09;100.00;102306.66;4854517;29;20035;-78
2023/12/17 04:09:11;;;;;;;0.00;0.00;;;;;;;9.07;100.00;102306.03;4867621;29;20373;-78
2023/12/17 04:11:37;;;;;;;0.00;0.00;;;;;;;9.04;100.00;102298.28;4866506;29;20033;-78
2023/12/17 04:14:02;;;;;;;0.00;0.00;;;;;;;8.94;100.00;102282.31;4865998;29;20037;-78
2023/12/17 04:16:28;;;;;;;0.00;0.00;;;;;;;8.98;100.00;102293.63;4858023;29;20041;-78
2023/12/17 04:18:53;;;;;;;0.00;0.00;;;;;;;8.92;100.00;102284.41;4845774;29;20037;-78
2023/12/17 04:21:19;;;;;;;0.00;0.00;;;;;;;8.98;100.00;102280.00;4879558;29;20032;-79
2023/12/17 04:23:45;;;;;;;0.00;0.00;;;;;;;8.91;100.00;102278.09;4847002;29;20156;-80
2023/12/17 04:26:11;;;;;;;0.00;0.00;;;;;;;8.90;100.00;102276.41;4881284;29;20028;-77
2023/12/17 04:28:37;;;;;;;0.00;0.00;;;;;;;8.97;100.00;102286.53;4873853;29;20032;-78
2023/12/17 04:31:02;;;;;;;0.00;0.00;;;;;;;8.93;100.00;102285.25;4875952;29;20492;-80
2023/12/17 04:33:27;;;;;;;0.00;0.00;;;;;;;8.87;100.00;102265.94;4843840;29;20476;-80
2023/12/17 04:35:53;;;;;;;0.10;0.10;;;;;;;8.83;100.00;102267.41;4857123;29;20057;-78
2023/12/17 04:38:18;;;;;;;0.00;0.00;;;;;;;8.84;100.00;102277.25;4884703;29;20033;-79
2023/12/17 04:40:46;;;;;;;0.00;0.00;;;;;;;8.73;100.00;102246.00;4860828;29;20061;-77
2023/12/17 04:43:12;;;;;;;0.00;0.00;;;;;;;8.77;100.00;102260.06;4870434;29;20117;-79
2023/12/17 04:45:37;;;;;;;0.00;0.00;;;;;;;8.64;100.00;102243.69;4844084;29;20037;-79
2023/12/17 04:48:04;;;;;;;0.00;0.00;;;;;;;8.61;100.00;102238.66;4871186;29;20040;-77
2023/12/17 04:50:31;;;;;;;0.00;0.00;;;;;;;8.55;100.00;102243.03;4858130;29;20037;-77
2023/12/17 04:52:57;;;;;;;0.00;0.00;;;;;;;8.43;100.00;102237.34;4851829;29;20388;-77
2023/12/17 04:55:22;;;;;;;0.00;0.00;;;;;;;8.44;100.00;102244.50;4857769;29;20021;-78
2023/12/17 04:57:48;;;;;;;0.00;0.00;;;;;;;8.33;100.00;102228.72;4864405;29;20057;-81
2023/12/17 05:00:14;;;;;;;0.00;0.00;;;;;;;8.32;100.00;102235.22;4879569;29;20040;-81
2023/12/17 05:02:42;;;;;;;0.00;0.00;;;;;;;8.23;100.00;102241.91;4860177;29;20022;-80
2023/12/17 05:05:07;;;;;;;0.00;0.00;;;;;;;8.27;100.00;102241.28;4872709;29;20044;-81
2023/12/17 05:07:33;;;;;;;0.00;0.00;;;;;;;8.29;100.00;102251.97;4854041;29;20026;-80
2023/12/17 05:10:01;;;;;;;0.00;0.00;;;;;;;8.32;100.00;102237.94;4864946;29;20032;-80
2023/12/17 05:12:26;;;;;;;0.00;0.00;;;;;;;8.28;100.00;102212.13;4868393;29;20029;-81
2023/12/17 05:14:54;;;;;;;0.00;0.00;;;;;;;8.53;100.00;102248.72;4866563;29;20081;-80
2023/12/17 05:17:27;;;;;;;0.00;0.00;;;;;;;8.64;100.00;102257.31;4857314;29;20461;-80
2023/12/17 05:19:52;;;;;;;0.00;0.00;;;;;;;8.48;100.00;102223.94;4858009;29;20033;-79
2023/12/17 05:22:17;;;;;;;0.00;0.00;;;;;;;8.59;100.00;102224.41;4871970;29;20040;-81
2023/12/17 05:24:43;;;;;;;0.00;0.00;;;;;;;8.78;100.00;102253.56;4852213;29;20033;-77
2023/12/17 05:27:08;;;;;;;0.00;0.00;;;;;;;8.80;100.00;102248.72;4849634;29;20488;-78
2023/12/17 05:29:36;;;;;;;0.00;0.00;;;;;;;8.84;100.00;102249.16;4861044;29;20495;-78
2023/12/17 05:32:02;;;;;;;0.00;0.00;;;;;;;8.88;100.00;102251.25;4864510;29;20061;-79
2023/12/17 05:34:28;;;;;;;0.00;0.00;;;;;;;8.85;100.00;102243.50;4856808;29;20044;-78
2023/12/17 05:36:53;;;;;;;0.00;0.00;;;;;;;8.90;100.00;102249.13;4842477;29;20033;-78
2023/12/17 05:39:19;;;;;;;0.00;0.00;;;;;;;8.87;100.00;102249.56;4846996;29;20049;-78
2023/12/17 05:41:44;;;;;;;0.00;0.00;;;;;;;8.87;99.73;102249.56;4856822;29;20116;-80
2023/12/17 05:44:10;;;;;;;0.00;0.00;;;;;;;8.87;99.53;102235.91;4860644;29;20033;-80
2023/12/17 05:46:35;;;;;;;0.00;0.00;;;;;;;8.89;100.00;102244.75;4853696;29;20328;-80
2023/12/17 05:49:01;;;;;;;0.00;0.00;;;;;;;8.94;99.64;102249.56;4876232;29;20120;-79
2023/12/17 05:51:27;;;;;;;0.00;0.00;;;;;;;8.91;99.77;102244.53;4867173;29;20100;-79
2023/12/17 05:53:52;;;;;;;0.00;0.00;;;;;;;8.91;99.77;102245.38;4863638;29;20029;-77
2023/12/17 05:56:17;;;;;;;0.00;0.00;;;;;;;8.96;99.89;102252.09;4872140;29;20054;-79
2023/12/17 05:58:44;;;;;;;0.00;0.00;;;;;;;8.88;99.45;102234.06;4865488;29;20092;-78
2023/12/17 06:01:10;;;;;;;0.00;0.00;;;;;;;8.88;99.45;102242.25;4873390;29;20033;-79
2023/12/17 06:03:38;;;;;;;0.00;0.00;;;;;;;8.82;99.02;102230.28;4863477;29;20030;-78
2023/12/17 06:06:03;;;;;;;0.00;0.00;;;;;;;8.85;98.95;102237.22;4883766;29;20041;-79
2023/12/17 06:08:29;;;;;;;0.00;0.00;;;;;;;8.80;99.47;102232.34;4852907;29;20025;-77
2023/12/17 06:10:54;;;;;;;0.00;0.00;;;;;;;8.77;99.19;102237.41;4871646;29;20021;-78
2023/12/17 06:13:20;;;;;;;0.00;0.00;;;;;;;8.72;98.91;102233.41;4846275;29;20025;-78
2023/12/17 06:15:47;;;;;;;0.00;0.00;;;;;;;8.75;99.36;102237.63;4870894;29;20387;-80
2023/12/17 06:18:15;;;;;;;0.00;0.00;;;;;;;8.55;99.12;102207.59;4856104;29;20082;-79
2023/12/17 06:20:41;;;;;;;0.00;0.00;;;;;;;8.80;99.78;102248.72;4867991;29;20480;-79
2023/12/17 06:23:11;;;;;;;0.00;0.00;;;;;;;8.81;99.06;102244.94;4871823;29;20054;-81
2023/12/17 06:25:37;;;;;;;0.00;0.00;;;;;;;8.73;98.44;102237.81;4873870;29;20056;-81
2023/12/17 06:28:02;;;;;;;0.00;0.00;;;;;;;8.70;99.33;102232.78;4861104;29;20039;-79
2023/12/17 06:30:30;;;;;;;0.00;0.00;;;;;;;8.74;99.00;102238.66;4869554;29;20033;-77
2023/12/17 06:32:55;;;;;;;0.00;0.00;;;;;;;8.77;99.15;102240.13;4860304;29;20037;-81
2023/12/17 06:35:21;;;;;;;0.00;0.00;;;;;;;8.69;99.50;102235.72;4882750;29;20045;-79
2023/12/17 06:37:46;;;;;;;0.00;0.00;;;;;;;8.66;99.90;102236.97;4884943;29;20101;-78
2023/12/17 06:40:15;;;;;;;0.00;0.00;;;;;;;8.68;99.30;102236.78;4868701;29;20562;-80
2023/12/17 06:42:40;;;;;;;0.00;0.00;;;;;;;8.71;99.25;102239.06;4880661;29;20957;-77
2023/12/17 06:45:06;;;;;;;0.00;0.00;;;;;;;8.70;99.30;102231.94;4848686;29;20040;-77
2023/12/17 06:47:32;;;;;;;0.00;0.00;;;;;;;8.71;99.11;102226.25;4854233;29;20887;-77
2023/12/17 06:49:57;;;;;;;0.00;0.00;;;;;;;8.67;98.54;102227.75;4882752;29;20037;-78
2023/12/17 06:52:22;;;;;;;0.00;0.00;;;;;;;8.71;98.41;102239.06;4884302;29;20028;-78
2023/12/17 06:54:48;;;;;;;0.00;0.00;;;;;;;8.64;98.02;102222.69;4870674;29;20368;-78
2023/12/17 06:57:13;;;;;;;0.00;0.00;;;;;;;8.70;97.92;102229.19;4862562;29;20135;-79
2023/12/17 06:59:41;;;;;;;0.00;0.00;;;;;;;8.62;98.12;102223.97;4857776;29;20477;-79
2023/12/17 07:02:07;;;;;;;0.00;0.00;;;;;;;8.62;97.73;102232.97;4864040;29;20036;-77
2023/12/17 07:08:41;;;;;;;0.00;0.00;;;;;;;8.33;97.50;102193.28;4764770;30;20047;-77
2023/12/17 07:11:07;;;;;;;0.00;0.00;;;;;;;8.64;97.87;102244.50;4771665;29;20042;-78
2023/12/17 07:13:32;;;;;;;0.00;0.00;;;;;;;8.39;97.43;102197.91;4853060;29;20060;-78
2023/12/17 07:16:00;;;;;;;0.00;0.00;;;;;;;8.47;97.70;102205.06;4878654;29;20041;-78
2023/12/17 07:18:26;;;;;;;0.00;0.00;;;;;;;8.58;97.23;102245.34;4878797;29;20025;-77
2023/12/17 07:20:51;;;;;;;0.00;0.00;;;;;;;8.37;97.13;102206.28;4853397;29;20032;-76
2023/12/17 07:23:27;;;;;;;;;;;;;;;;;;;;;
2023/12/17 07:26:03;;;;;;;0.00;0.00;;;;;;;8.66;97.35;102236.13;4861292;29;20036;-78
2023/12/17 07:28:28;;;;;;;0.00;0.00;;;;;;;8.68;97.13;102234.03;4861398;29;20065;-77
2023/12/17 07:30:54;;;;;;;0.00;0.00;;;;;;;8.65;96.60;102229.00;4869864;29;20056;-77
2023/12/17 07:33:19;;;;;;;0.00;0.00;;;;;;;8.49;96.36;102201.09;4844119;29;20531;-76
2023/12/17 07:35:45;;;;;;;0.00;0.00;;;;;;;8.58;96.00;102209.06;4856168;29;20107;-79
2023/12/17 07:38:13;;;;;;;0.00;0.00;;;;;;;8.47;95.82;102199.59;4872313;29;20030;-78
2023/12/17 07:40:39;;;;;;;0.00;0.00;;;;;;;8.51;96.36;102206.31;4861285;29;20033;-79
2023/12/17 07:43:05;;;;;;;0.00;0.00;;;;;;;8.52;96.48;102219.75;4872886;29;20774;-78
2023/12/17 07:45:37;;;;;;;0.00;0.00;;;;;;;8.49;96.63;102214.72;4852474;29;20116;-77
2023/12/17 07:48:04;;;;;;;0.00;0.00;;;;;;;8.50;96.65;102205.50;4849561;29;20039;-78
2023/12/17 07:50:44;;;;;;;;;;;;;;;;;;;;;
2023/12/17 07:53:15;;;;;;;0.00;0.00;;;;;;;8.48;96.06;102191.22;4856966;29;20025;-77
2023/12/17 07:55:43;;;;;;;0.00;0.00;;;;;;;8.67;96.38;102216.00;4865224;29;20034;-78
2023/12/17 07:58:16;;;;;;;0.00;0.00;;;;;;;8.63;96.09;102214.72;4854969;29;20072;-81
2023/12/17 08:00:47;;;;;;;0.00;0.00;;;;;;;8.72;96.08;102236.13;4866695;29;20048;-79
2023/12/17 08:03:37;;;;;;;0.00;0.00;;;;;;;8.53;96.45;102206.97;4883551;29;20468;-79
2023/12/17 08:06:05;;;;;;;0.00;0.00;;;;;;;8.47;96.24;102203.19;4868545;29;20033;-79
2023/12/17 08:08:36;;;;;;;0.00;0.00;;;;;;;8.51;96.56;102207.19;4853419;29;20031;-79
2023/12/17 08:11:14;;;;;;;;;;;;;;;;;;;;;
2023/12/17 08:13:40;;;;;;;0.00;0.00;;;;;;;8.57;96.82;102232.75;4867028;29;20024;-78
2023/12/17 08:16:09;;;;;;;0.00;0.00;;;;;;;8.34;96.35;102189.53;4880686;29;21691;-78
2023/12/17 08:19:10;;;;;;;;;;;;;;;;;;;;;
2023/12/17 08:21:38;;;;;;;0.00;0.00;;;;;;;8.60;96.50;102226.06;4873256;29;20033;-80
2023/12/17 08:24:19;;;;;;;;;;;;;;;;;;;;;
2023/12/17 08:26:47;;;;;;;0.00;0.00;;;;;;;8.87;96.16;102265.94;4876433;29;20029;-78
2023/12/17 08:29:49;;;;;;;;;;;;;;;;;;;;;
2023/12/17 08:33:12;;;;;;;0.00;0.00;;;;;;;8.76;95.81;102233.84;4860925;29;20056;-78
2023/12/17 08:35:58;;;;;;;;;;;;;;;;;;;;;
2023/12/17 08:38:39;;;;;;;;;;;;;;;;;;;;;
2023/12/17 08:41:13;;;;;;;0.00;0.00;;;;;;;8.60;95.33;102198.78;4870736;29;20034;-80
2023/12/17 08:43:48;;;;;;;0.00;0.00;;;;;;;8.68;95.28;102212.22;4863522;29;20076;-78
2023/12/17 08:49:32;;;;;;;0.00;0.00;;;;;;;8.86;94.63;102226.06;4870970;29;20395;-82
2023/12/17 08:52:21;;;;;;;0.00;0.00;;;;;;;8.78;94.80;102207.19;4873866;29;20041;-80
2023/12/17 08:54:58;;;;;;;0.00;0.00;;;;;;;8.96;94.66;102224.81;4867092;29;20037;-78
2023/12/17 08:57:24;;;;;;;0.00;0.00;;;;;;;8.96;93.97;102227.53;4872732;29;20137;-77
2023/12/17 08:59:49;;;;;;;0.00;0.00;;;;;;;9.04;94.26;102239.06;4866751;29;20463;-78
2023/12/17 09:02:15;;;;;;;0.00;0.00;;;;;;;8.98;93.78;102219.97;4846962;29;20044;-76
2023/12/17 09:04:40;;;;;;;0.00;0.00;;;;;;;9.16;94.02;102247.44;4852666;29;20041;-78
2023/12/17 09:07:05;;;;;;;0.00;0.00;;;;;;;9.17;93.76;102237.38;4859013;29;20400;-80
2023/12/17 09:09:31;;;;;;;0.00;0.00;;;;;;;9.15;93.73;102226.66;4860490;29;20671;-78
2023/12/17 09:11:57;;;;;;;0.00;0.00;;;;;;;9.22;92.80;102241.13;4860685;29;20036;-79
2023/12/17 09:14:25;;;;;;;0.00;0.00;;;;;;;9.14;92.56;102222.28;4835378;29;20164;-78
2023/12/17 09:16:58;;;;;;;0.00;0.00;;;;;;;9.20;92.26;102229.59;4869934;29;20056;-81
2023/12/17 09:19:23;;;;;;;0.00;0.00;;;;;;;9.47;92.51;102253.28;4864192;29;20103;-77
2023/12/17 09:21:49;;;;;;;0.00;0.00;;;;;;;9.54;91.69;102249.47;4861866;29;20120;-77
2023/12/17 09:24:17;;;;;;;0.00;0.00;;;;;;;9.53;91.67;102230.56;4866690;29;20035;-77
2023/12/17 09:26:42;;;;;;;0.00;0.00;;;;;;;9.76;90.68;102269.16;4850124;29;21425;-77
2023/12/17 09:29:07;;;;;;;0.00;0.00;;;;;;;9.53;90.51;102227.84;4877175;29;20109;-77
2023/12/17 09:31:35;;;;;;;0.00;0.00;;;;;;;9.78;91.10;102258.00;4865220;29;20092;-77
2023/12/17 09:34:01;;;;;;;0.00;0.00;;;;;;;9.94;90.05;102264.88;4860345;29;20026;-79
2023/12/17 09:36:27;;;;;;;0.00;0.00;;;;;;;9.84;89.57;102235.31;4864746;29;20021;-77
2023/12/17 09:38:53;;;;;;;0.00;0.00;;;;;;;9.83;89.39;102219.94;4874249;29;20065;-77
2023/12/17 09:41:19;;;;;;;0.00;0.00;;;;;;;9.94;88.17;102222.00;4864199;29;20033;-78
2023/12/17 09:43:56;;;;;;;0.00;0.00;;;;;;;9.86;87.50;102197.66;4863578;29;20065;-77
2023/12/17 09:47:00;;;;;;;0.00;0.00;;;;;;;10.20;86.97;102231.09;4861988;29;20061;-76
2023/12/17 09:49:28;;;;;;;0.00;0.00;;;;;;;10.00;86.71;102187.47;4866550;29;20047;-76
2023/12/17 09:52:03;;;;;;;0.00;0.00;;;;;;;10.12;86.97;102214.97;4861295;29;20037;-77
2023/12/17 09:54:28;;;;;;;0.00;0.00;;;;;;;10.11;86.12;102221.50;4858889;29;20028;-76
2023/12/17 09:56:55;;;;;;;0.00;0.00;;;;;;;10.16;86.45;102240.78;4867588;29;20389;-76
2023/12/17 09:59:21;;;;;;;0.00;0.00;;;;;;;10.13;86.36;102241.25;4866357;29;20036;-78
2023/12/17 10:02:03;;;;;;;0.00;0.00;;;;;;;9.94;86.83;102213.81;4855481;29;20495;-78
2023/12/17 10:04:28;;;;;;;0.00;0.00;;;;;;;10.11;87.19;102226.97;4872827;29;20516;-76
2023/12/17 10:06:54;;;;;;;0.00;0.00;;;;;;;10.37;86.75;102230.63;4881601;29;20036;-77
2023/12/17 10:09:19;;;;;;;0.00;0.00;;;;;;;10.56;85.32;102239.75;4857327;29;20031;-78
2023/12/17 10:11:48;;;;;;;0.00;0.00;;;;;;;10.61;85.01;102232.53;4863621;29;20570;-77
2023/12/17 10:14:23;;;;;;;0.00;0.00;;;;;;;10.67;84.00;102222.59;4875898;29;20041;-76
2023/12/17 10:16:50;;;;;;;0.00;0.00;;;;;;;10.82;84.20;102244.19;4880353;29;20083;-76
2023/12/17 10:19:16;;;;;;;0.00;0.00;;;;;;;10.76;83.61;102231.38;4857867;29;20062;-74
2023/12/17 10:21:42;;;;;;;0.00;0.00;;;;;;;10.65;83.89;102239.25;4854139;29;20029;-75
2023/12/17 10:24:09;;;;;;;0.00;0.00;;;;;;;10.52;84.38;102233.88;4870226;29;20049;-76
2023/12/17 10:26:45;;;;;;;0.00;0.00;;;;;;;10.26;84.82;102207.50;4854825;29;20092;-76
2023/12/17 10:29:14;;;;;;;0.00;0.00;;;;;;;10.40;86.10;102246.59;4867020;29;20072;-78
2023/12/17 10:31:41;;;;;;;0.00;0.00;;;;;;;10.40;85.84;102246.59;4851330;29;20041;-77
2023/12/17 10:34:28;;;;;;;0.00;0.00;;;;;;;10.41;86.31;102229.09;4861263;29;20033;-75
2023/12/17 10:36:55;;;;;;;0.00;0.00;;;;;;;10.42;86.06;102214.38;4862553;29;20104;-77
2023/12/17 10:39:20;;;;;;;0.00;0.00;;;;;;;10.38;85.91;102204.94;4862591;29;20112;-77
2023/12/17 10:41:51;;;;;;;0.00;0.00;;;;;;;10.46;85.79;102201.94;4861876;29;20557;-75
2023/12/17 10:44:26;;;;;;;0.00;0.00;;;;;;;10.63;85.21;102224.97;4870531;29;20029;-76
2023/12/17 10:46:57;;;;;;;0.00;0.00;;;;;;;10.68;85.00;102212.53;4867478;29;20099;-75
2023/12/17 10:49:23;;;;;;;0.00;0.00;;;;;;;10.83;83.89;102218.47;4861165;29;20045;-77
2023/12/17 10:51:51;;;;;;;0.00;0.00;;;;;;;10.83;83.87;102199.31;4852096;29;20030;-79
2023/12/17 10:54:23;;;;;;;0.00;0.00;;;;;;;10.94;82.93;102220.50;4879285;29;20034;-79
2023/12/17 10:57:10;;;;;;;0.00;0.00;;;;;;;10.72;82.08;102183.63;4867636;29;21803;-79
2023/12/17 10:59:37;;;;;;;0.00;0.00;;;;;;;10.88;81.99;102188.56;4864667;29;20590;-79
2023/12/17 11:02:08;;;;;;;0.00;0.00;;;;;;;10.90;80.93;102197.38;4875586;29;20626;-78
2023/12/17 11:04:33;;;;;;;0.00;0.00;;;;;;;10.85;81.42;102210.91;4873793;29;20029;-79
2023/12/17 11:07:20;;;;;;;0.00;0.00;;;;;;;10.46;81.86;102169.97;4849199;29;20040;-80
2023/12/17 11:09:49;;;;;;;0.00;0.00;;;;;;;10.73;82.15;102199.00;4875065;29;20032;-78
2023/12/17 11:12:21;;;;;;;0.00;0.00;;;;;;;10.71;82.58;102187.44;4877860;29;20040;-82
2023/12/17 11:14:48;;;;;;;0.00;0.00;;;;;;;10.73;81.84;102190.78;4850528;29;20500;-81
2023/12/17 11:17:16;;;;;;;0.00;0.00;;;;;;;10.73;82.38;102197.13;4861914;29;20044;-77
2023/12/17 11:19:55;;;;;;;0.00;0.00;;;;;;;10.81;82.64;102204.19;4858866;29;20136;-82
2023/12/17 11:22:55;;;;;;;0.00;0.00;;;;;;;10.70;83.56;102202.19;4875382;29;20030;-81
2023/12/17 11:25:37;;;;;;;0.00;0.00;;;;;;;10.71;83.92;102214.81;4861577;29;20045;-79
2023/12/17 11:28:28;;;;;;;0.00;0.00;;;;;;;10.48;83.59;102153.31;4880004;29;20157;-80
2023/12/17 11:30:59;;;;;;;0.00;0.00;;;;;;;10.72;83.38;102202.78;4860512;29;20104;-79
2023/12/17 11:33:25;;;;;;;0.00;0.00;;;;;;;10.58;81.33;102189.22;4878140;29;20113;-80
2023/12/17 11:35:57;;;;;;;0.00;0.00;;;;;;;10.52;82.17;102190.13;4850939;29;20117;-80
2023/12/17 11:38:23;;;;;;;0.00;0.00;;;;;;;10.46;81.84;102212.88;4859496;29;20032;-78
2023/12/17 11:40:49;;;;;;;0.00;0.00;;;;;;;10.38;83.08;102183.06;4881909;29;20564;-85
2023/12/17 11:43:14;;;;;;;0.00;0.00;;;;;;;10.35;82.93;102178.03;4861742;29;20197;-79
2023/12/17 11:45:44;;;;;;;0.00;0.00;;;;;;;10.40;83.06;102176.31;4875308;29;20668;-80
2023/12/17 11:48:17;;;;;;;0.00;0.00;;;;;;;10.45;83.68;102171.03;4873160;29;20034;-78
2023/12/17 11:50:49;;;;;;;0.00;0.00;;;;;;;10.65;83.69;102194.66;4873419;29;20025;-80
2023/12/17 11:53:22;;;;;;;0.00;0.00;;;;;;;10.64;83.73;102193.81;4876442;29;20033;-78
2023/12/17 11:56:16;;;;;;;0.00;0.00;;;;;;;10.65;83.67;102205.59;4864962;29;20034;-78